Meteorológiai információk azoknak akik tudják olvasni.

METAR = LHBP 300630Z 11008KT 4000 RA OVC004 14/13 Q1007 NOSIG

9 órás TAF = TAF TAF LHBP 242330Z 2423/2424 30008KT CAVOK BECMG 2506/2509 24010KT OVC030 TEMPO 2509/2515 24015G25KT 8000 -RA BKN013 OVC025 BECMG 2515/2518 30008KT CAVOK

24 órás TAF = TAF TAF LHBP 300515Z 3006/0106 14006KT 9999 BKN030 OVC050 TEMPO 3006/3010 2500 RA +SHRA BR BKN004 BKN020TCU OVC025 PROB40 TEMPO 3006/3009 VRB12KT TSRA BKN010CB BECMG 3010/3013 26006KT BKN020 BECMG 3015/3018 VRB03KT CAVOK TEMPO 3020/0106 4000 SHRA TSRA SCT030CB BKN060

ÁLLOMÁS.................... LHBP
ÉSZLELÉS................... Fri Sep 30, 08:30 CEST
MOST....................... Fri Sep 30, 09:00 CEST
IDŐ........................ 30 perccel ezelőtt
SZÉL....................... KDK irányból 8 csomó
LÁTÁSTÁVOLSÁG.............. 2.5 mérföld
FELHŐZET................... borult
HŐMÉRSÉKLET................ 57°F (14°C)
HARMATPONT................. 55°F (13°C)
PÁRATARTALOM............... 94%
LÉGNYOMÁS.................. 1007 hPa (29.74 in Hg)

További információ LHBP állomásról

Meteor információ kérése:        állomásról.    

 

www.tothgeza.hu

 

English version
Copyright © 2003-2022 Tóth Géza Minden jog fenntartva.